createdAt,value
2023-03-26T00:00:24.570Z,95.04
2023-03-26T00:03:10.407Z,96.17
2023-03-26T00:06:04.646Z,98.04
2023-03-26T00:08:50.937Z,97.25
2023-03-26T00:11:35.381Z,94.56
2023-03-26T00:14:19.344Z,94.66
2023-03-26T00:17:04.519Z,93.63
2023-03-26T00:19:48.923Z,93.29
2023-03-26T00:22:32.876Z,92.51
2023-03-26T00:25:18.792Z,91.11
2023-03-26T00:28:04.065Z,89.62
2023-03-26T00:30:48.279Z,90.32
2023-03-26T00:33:32.720Z,91.04
2023-03-26T00:36:20.178Z,90.70
2023-03-26T00:39:06.148Z,91.33
2023-03-26T00:41:54.570Z,91.84
2023-03-26T00:44:38.893Z,93.28
2023-03-26T00:47:22.951Z,92.56
2023-03-26T00:50:15.485Z,92.36
2023-03-26T00:52:59.614Z,92.71
2023-03-26T00:55:45.213Z,93.58
2023-03-26T00:58:31.270Z,93.48
2023-03-26T01:01:17.511Z,92.76
2023-03-26T01:04:28.396Z,92.22
2023-03-26T01:07:17.075Z,93.23
2023-03-26T01:10:02.087Z,92.65
2023-03-26T01:12:47.565Z,91.98
2023-03-26T01:15:33.367Z,92.33
2023-03-26T01:18:17.539Z,93.75
2023-03-26T01:21:09.446Z,92.17
2023-03-26T01:24:05.302Z,92.13
2023-03-26T01:27:04.538Z,92.14
2023-03-26T01:29:56.072Z,92.43
2023-03-26T01:32:51.739Z,92.23
2023-03-26T01:35:46.002Z,93.59
2023-03-26T01:38:35.688Z,94.51
2023-03-26T01:41:26.437Z,94.32
2023-03-26T01:44:17.939Z,94.65
2023-03-26T01:47:02.730Z,94.33
2023-03-26T01:49:46.679Z,93.73
2023-03-26T01:52:31.725Z,93.31
2023-03-26T01:55:16.057Z,91.70
2023-03-26T01:58:12.409Z,90.33
2023-03-26T02:01:04.572Z,89.82
2023-03-26T02:03:54.833Z,87.16
2023-03-26T02:06:44.538Z,85.45
2023-03-26T02:09:32.528Z,83.96
2023-03-26T02:12:17.837Z,82.95
2023-03-26T02:15:03.379Z,82.54
2023-03-26T02:17:49.484Z,81.75
2023-03-26T02:20:33.427Z,79.69
2023-03-26T02:23:17.356Z,78.96
2023-03-26T02:26:06.419Z,77.64
2023-03-26T02:28:51.454Z,77.25
2023-03-26T02:31:37.986Z,78.07
2023-03-26T02:34:22.201Z,77.44
2023-03-26T02:37:08.927Z,76.53
2023-03-26T02:39:54.812Z,76.08
2023-03-26T02:42:47.445Z,76.77
2023-03-26T02:45:31.864Z,74.57
2023-03-26T02:48:50.010Z,74.24
2023-03-26T02:51:40.299Z,73.48
2023-03-26T02:54:37.203Z,75.08
2023-03-26T02:57:36.090Z,75.11
2023-03-26T03:00:22.740Z,74.12
2023-03-26T03:03:07.676Z,74.43
2023-03-26T03:06:18.918Z,74.43
2023-03-26T03:09:09.826Z,73.71
2023-03-26T03:11:53.732Z,73.92
2023-03-26T03:14:37.993Z,74.16
2023-03-26T03:17:22.147Z,74.14
2023-03-26T03:20:09.349Z,73.83
2023-03-26T03:22:56.700Z,74.35
2023-03-26T03:25:41.672Z,73.44
2023-03-26T03:28:26.020Z,73.09
2023-03-26T03:31:10.279Z,74.55
2023-03-26T03:33:54.388Z,74.63
2023-03-26T03:36:39.498Z,76.03
2023-03-26T03:39:34.433Z,76.52
2023-03-26T03:42:18.648Z,76.98
2023-03-26T03:45:03.397Z,75.90
2023-03-26T03:48:07.700Z,76.58
2023-03-26T03:51:01.641Z,76.80
2023-03-26T03:53:52.900Z,77.91
2023-03-26T03:56:51.199Z,77.25
2023-03-26T03:59:58.348Z,78.38
2023-03-26T04:02:46.725Z,78.48
2023-03-26T04:05:33.430Z,78.73
2023-03-26T04:08:17.951Z,79.10
2023-03-26T04:11:05.364Z,79.45
2023-03-26T04:14:10.275Z,78.81
2023-03-26T04:17:27.049Z,79.24
2023-03-26T04:20:15.935Z,78.67
2023-03-26T04:23:02.462Z,78.76
2023-03-26T04:25:49.546Z,79.71
2023-03-26T04:28:46.543Z,80.99
2023-03-26T04:31:36.623Z,81.08
2023-03-26T04:34:25.284Z,81.12
2023-03-26T04:37:34.556Z,80.45
2023-03-26T04:40:25.684Z,80.92
2023-03-26T04:43:18.144Z,80.61
2023-03-26T04:46:33.823Z,81.42
2023-03-26T04:49:27.686Z,80.88
2023-03-26T04:52:12.940Z,81.17
2023-03-26T04:55:41.188Z,80.81
2023-03-26T04:58:35.496Z,81.31
2023-03-26T05:01:20.140Z,81.85
2023-03-26T05:04:04.332Z,82.39
2023-03-26T05:06:49.954Z,82.16
2023-03-26T05:09:52.901Z,83.97
2023-03-26T05:12:40.624Z,84.40
2023-03-26T05:15:32.722Z,83.80
2023-03-26T05:18:29.578Z,83.70
2023-03-26T05:21:13.833Z,82.89
2023-03-26T05:23:59.562Z,83.27
2023-03-26T05:26:43.504Z,84.22
2023-03-26T05:29:28.624Z,83.41
2023-03-26T05:32:13.099Z,84.63
2023-03-26T05:34:57.240Z,83.71
2023-03-26T05:37:41.151Z,83.20
2023-03-26T05:40:26.798Z,83.68
2023-03-26T05:43:21.827Z,82.62
2023-03-26T05:46:18.234Z,81.76
2023-03-26T05:49:02.369Z,81.94
2023-03-26T05:51:50.641Z,80.60
2023-03-26T05:54:55.031Z,79.92
2023-03-26T05:57:58.784Z,81.26
2023-03-26T06:01:19.085Z,81.17
2023-03-26T06:04:22.172Z,79.32
2023-03-26T06:07:27.233Z,79.29
2023-03-26T06:10:27.683Z,79.45
2023-03-26T06:13:13.742Z,79.66
2023-03-26T06:15:58.514Z,79.80
2023-03-26T06:18:47.993Z,80.28
2023-03-26T06:21:40.502Z,79.17
2023-03-26T06:24:35.012Z,79.42
2023-03-26T06:27:38.682Z,79.26
2023-03-26T06:31:02.712Z,78.23
2023-03-26T06:33:53.424Z,78.34
2023-03-26T06:36:38.188Z,78.53
2023-03-26T06:39:22.557Z,77.62
2023-03-26T06:42:22.261Z,77.24
2023-03-26T06:45:46.565Z,77.28
2023-03-26T06:48:52.285Z,76.99
2023-03-26T06:51:56.268Z,76.36
2023-03-26T06:54:58.959Z,75.77
2023-03-26T06:58:22.529Z,75.28
2023-03-26T07:01:29.308Z,75.40
2023-03-26T07:04:33.570Z,73.59
2023-03-26T07:07:36.288Z,72.49
2023-03-26T07:10:48.742Z,73.28
2023-03-26T07:13:59.716Z,72.08
2023-03-26T07:17:21.755Z,71.73
2023-03-26T07:20:30.497Z,72.52
2023-03-26T07:23:15.780Z,71.74
2023-03-26T07:26:24.469Z,71.88
2023-03-26T07:29:28.121Z,71.80
2023-03-26T07:32:30.410Z,72.33
2023-03-26T07:35:28.816Z,72.82
2023-03-26T07:38:48.773Z,71.95
2023-03-26T07:42:02.753Z,71.58
2023-03-26T07:45:18.528Z,68.16
2023-03-26T07:48:27.478Z,67.32
2023-03-26T07:51:44.316Z,66.82
2023-03-26T07:54:56.349Z,66.20
2023-03-26T07:58:11.628Z,68.27
2023-03-26T08:01:36.619Z,67.31
2023-03-26T08:04:45.710Z,67.58
2023-03-26T08:07:59.706Z,66.97
2023-03-26T08:11:05.418Z,67.10
2023-03-26T08:14:02.692Z,67.52
2023-03-26T08:16:52.694Z,66.20
2023-03-26T08:20:05.899Z,64.99
2023-03-26T08:22:55.459Z,65.58
2023-03-26T08:25:52.094Z,64.04
2023-03-26T08:28:53.625Z,64.46
2023-03-26T08:31:41.188Z,64.24
2023-03-26T08:34:25.579Z,63.40
2023-03-26T08:37:10.106Z,61.88
2023-03-26T08:39:54.363Z,62.48
2023-03-26T08:43:18.964Z,61.81
2023-03-26T08:46:35.504Z,61.13
2023-03-26T08:49:46.738Z,59.78
2023-03-26T08:53:22.900Z,58.32
2023-03-26T08:56:27.915Z,57.38
2023-03-26T08:59:38.172Z,58.34
2023-03-26T09:03:03.497Z,58.32
2023-03-26T09:06:06.766Z,55.27
2023-03-26T09:09:26.028Z,55.01
2023-03-26T09:12:51.451Z,55.29
2023-03-26T09:16:07.853Z,56.19
2023-03-26T09:19:20.172Z,56.02
2023-03-26T09:22:39.478Z,55.93
2023-03-26T09:25:54.559Z,55.12
2023-03-26T09:29:04.241Z,56.16
2023-03-26T09:32:42.304Z,55.95
2023-03-26T09:35:53.480Z,56.05
2023-03-26T09:38:44.949Z,56.65
2023-03-26T09:41:42.696Z,56.79
2023-03-26T09:45:02.028Z,55.68
2023-03-26T09:48:14.031Z,58.40
2023-03-26T09:51:26.747Z,58.34
2023-03-26T09:54:44.536Z,57.58
2023-03-26T09:57:53.981Z,57.67
2023-03-26T10:00:45.796Z,57.88
2023-03-26T10:03:42.956Z,57.07
2023-03-26T10:06:39.682Z,55.94
2023-03-26T10:09:43.798Z,53.48
2023-03-26T10:12:35.361Z,55.37
2023-03-26T10:15:35.626Z,56.54
2023-03-26T10:18:33.276Z,56.00
2023-03-26T10:21:28.074Z,55.17
2023-03-26T10:24:28.967Z,55.82
2023-03-26T10:27:33.672Z,55.39
2023-03-26T10:30:49.203Z,55.95
2023-03-26T10:33:40.647Z,55.65
2023-03-26T10:36:32.078Z,57.54
2023-03-26T10:39:37.404Z,54.81
2023-03-26T10:42:43.428Z,55.27
2023-03-26T10:45:36.573Z,55.40
2023-03-26T10:48:52.018Z,54.71
2023-03-26T10:51:48.901Z,55.32
2023-03-26T10:54:42.285Z,54.83
2023-03-26T10:57:41.624Z,52.88
2023-03-26T11:00:29.269Z,51.34
2023-03-26T11:03:32.801Z,52.21
2023-03-26T11:06:35.017Z,54.16
2023-03-26T11:09:30.464Z,53.57
2023-03-26T11:12:27.005Z,54.19
2023-03-26T11:15:21.884Z,54.39
2023-03-26T11:18:17.150Z,53.81
2023-03-26T11:21:19.056Z,53.93
2023-03-26T11:24:16.717Z,53.55
2023-03-26T11:27:15.439Z,53.00
2023-03-26T11:30:11.302Z,52.85
2023-03-26T11:32:58.938Z,51.44
2023-03-26T11:35:47.751Z,51.75
2023-03-26T11:38:38.648Z,49.67
2023-03-26T11:41:28.138Z,47.65
2023-03-26T11:44:29.523Z,47.50
2023-03-26T11:47:17.627Z,48.45
2023-03-26T11:50:03.382Z,48.09
2023-03-26T11:52:48.078Z,47.76
2023-03-26T11:55:34.061Z,48.84
2023-03-26T11:58:31.361Z,48.99
2023-03-26T12:01:18.926Z,47.21
2023-03-26T12:04:08.168Z,47.14
2023-03-26T12:06:56.822Z,48.06
2023-03-26T12:09:51.522Z,46.44
2023-03-26T12:12:41.898Z,47.65
2023-03-26T12:15:26.844Z,46.96
2023-03-26T12:18:26.229Z,47.70
2023-03-26T12:21:13.227Z,45.49
2023-03-26T12:24:00.100Z,45.77
2023-03-26T12:26:46.576Z,45.76
2023-03-26T12:29:34.751Z,47.51
2023-03-26T12:32:19.017Z,47.08
2023-03-26T12:35:07.728Z,46.71
2023-03-26T12:37:52.007Z,47.99
2023-03-26T12:40:36.900Z,46.81
2023-03-26T12:44:53.907Z,47.04
2023-03-26T12:47:55.273Z,46.80
2023-03-26T12:49:40.199Z,46.33
2023-03-26T12:52:48.055Z,46.41
2023-03-26T12:55:44.195Z,45.43
2023-03-26T12:58:51.478Z,45.86
2023-03-26T13:01:50.602Z,45.51
2023-03-26T13:05:06.022Z,45.33
2023-03-26T13:08:01.632Z,44.21
2023-03-26T13:10:57.735Z,45.23
2023-03-26T13:13:58.119Z,45.67
2023-03-26T13:16:54.141Z,44.47
2023-03-26T13:19:45.318Z,46.71
2023-03-26T13:22:39.495Z,44.65
2023-03-26T13:25:35.476Z,45.57
2023-03-26T13:28:33.216Z,46.13
2023-03-26T13:31:24.135Z,44.83
2023-03-26T13:34:19.677Z,44.48
2023-03-26T13:37:13.999Z,44.47
2023-03-26T13:40:06.968Z,45.13
2023-03-26T13:43:03.564Z,44.57
2023-03-26T13:46:01.242Z,46.86
2023-03-26T13:48:53.009Z,45.52
2023-03-26T13:51:43.351Z,45.71
2023-03-26T13:54:31.495Z,45.69
2023-03-26T13:57:24.249Z,45.61
2023-03-26T14:00:16.537Z,44.55
2023-03-26T14:03:09.549Z,44.67
2023-03-26T14:05:58.215Z,44.20
2023-03-26T14:08:49.385Z,44.53
2023-03-26T14:11:48.913Z,44.39
2023-03-26T14:14:39.051Z,43.15
2023-03-26T14:17:28.340Z,43.49
2023-03-26T14:20:33.983Z,42.87
2023-03-26T14:23:49.265Z,43.53
2023-03-26T14:26:52.162Z,42.06
2023-03-26T14:29:57.080Z,41.60
2023-03-26T14:32:54.188Z,41.65
2023-03-26T14:35:41.611Z,41.68
2023-03-26T14:39:01.602Z,41.51
2023-03-26T14:41:51.749Z,41.13
2023-03-26T14:44:58.059Z,41.86
2023-03-26T14:47:51.842Z,42.59
2023-03-26T14:50:56.020Z,42.13
2023-03-26T14:53:45.119Z,42.97
2023-03-26T14:57:06.687Z,42.66
2023-03-26T15:00:32.168Z,41.86
2023-03-26T15:03:59.928Z,42.51
2023-03-26T15:07:15.485Z,41.77
2023-03-26T15:10:26.811Z,40.83
2023-03-26T15:13:36.871Z,41.07
2023-03-26T15:16:56.103Z,41.14
2023-03-26T15:20:19.913Z,42.08
2023-03-26T15:23:33.547Z,39.35
2023-03-26T15:27:02.425Z,41.35
2023-03-26T15:30:19.184Z,39.98
2023-03-26T15:33:38.596Z,41.35
2023-03-26T15:36:59.067Z,39.43
2023-03-26T15:40:12.243Z,40.58
2023-03-26T15:43:05.746Z,40.25
2023-03-26T15:45:55.058Z,47.41
2023-03-26T15:48:57.904Z,48.63
2023-03-26T15:51:55.856Z,48.52
2023-03-26T15:54:52.109Z,50.29
2023-03-26T15:57:47.159Z,52.85
2023-03-26T16:00:35.895Z,53.48
2023-03-26T16:03:34.441Z,54.74
2023-03-26T16:06:36.941Z,55.98
2023-03-26T16:09:46.415Z,55.72
2023-03-26T16:12:34.420Z,56.72
2023-03-26T16:15:29.901Z,56.50
2023-03-26T16:18:37.328Z,56.08
2023-03-26T16:21:41.296Z,56.84
2023-03-26T16:24:28.958Z,58.57
2023-03-26T16:27:32.355Z,59.56
2023-03-26T16:30:33.638Z,59.39
2023-03-26T16:33:21.683Z,59.96
2023-03-26T16:36:26.060Z,60.93
2023-03-26T16:39:19.415Z,63.46
2023-03-26T16:42:10.425Z,62.16
2023-03-26T16:45:07.148Z,63.45
2023-03-26T16:48:03.106Z,62.48
2023-03-26T16:50:53.641Z,62.33
2023-03-26T16:53:47.407Z,62.91
2023-03-26T16:56:38.765Z,64.51
2023-03-26T17:00:05.642Z,65.05
2023-03-26T17:03:00.077Z,68.36
2023-03-26T17:06:02.233Z,67.10
2023-03-26T17:08:57.605Z,68.39
2023-03-26T17:11:55.031Z,70.28
2023-03-26T17:14:50.804Z,74.85
2023-03-26T17:17:54.990Z,71.90
2023-03-26T17:20:44.468Z,72.05
2023-03-26T17:23:45.621Z,72.26
2023-03-26T17:26:54.371Z,73.46
2023-03-26T17:30:00.336Z,76.17
2023-03-26T17:32:58.926Z,74.49
2023-03-26T17:35:45.739Z,75.13
2023-03-26T17:39:03.214Z,76.45
2023-03-26T17:41:56.383Z,79.50
2023-03-26T17:44:50.308Z,77.61
2023-03-26T17:47:39.682Z,76.63
2023-03-26T17:50:30.070Z,77.25
2023-03-26T17:53:20.779Z,79.08
2023-03-26T17:56:07.706Z,78.49
2023-03-26T17:59:11.442Z,78.86
2023-03-26T18:02:00.314Z,78.03
2023-03-26T18:04:48.397Z,82.00
2023-03-26T18:08:09.509Z,80.04
2023-03-26T18:11:27.207Z,79.29
2023-03-26T18:14:40.663Z,80.39
2023-03-26T18:17:26.402Z,80.00
2023-03-26T18:20:21.845Z,79.58
2023-03-26T18:23:12.395Z,79.14
2023-03-26T18:25:59.319Z,79.64
2023-03-26T18:28:45.292Z,79.78
2023-03-26T18:31:33.496Z,79.13
2023-03-26T18:34:20.272Z,78.94
2023-03-26T18:37:17.871Z,78.04
2023-03-26T18:40:11.398Z,78.52
2023-03-26T18:42:59.232Z,78.79
2023-03-26T18:45:45.129Z,79.55
2023-03-26T18:48:30.997Z,79.97
2023-03-26T18:51:16.205Z,79.36
2023-03-26T18:54:02.611Z,80.33
2023-03-26T18:56:49.063Z,80.63
2023-03-26T18:59:41.231Z,80.39
2023-03-26T19:02:26.948Z,81.00
2023-03-26T19:05:18.192Z,81.10
2023-03-26T19:08:05.046Z,83.27
2023-03-26T19:10:50.485Z,83.00
2023-03-26T19:13:37.690Z,83.03
2023-03-26T19:16:24.305Z,83.35
2023-03-26T19:19:09.325Z,83.29
2023-03-26T19:21:54.997Z,83.37
2023-03-26T19:24:39.954Z,84.21
2023-03-26T19:27:24.357Z,84.80
2023-03-26T19:30:11.967Z,85.43
2023-03-26T19:33:13.016Z,84.42
2023-03-26T19:36:04.946Z,86.51
2023-03-26T19:38:53.868Z,86.17
2023-03-26T19:41:41.198Z,85.91
2023-03-26T19:44:28.738Z,85.13
2023-03-26T19:47:19.768Z,84.56
2023-03-26T19:50:23.701Z,83.66
2023-03-26T19:53:17.818Z,84.94
2023-03-26T19:56:13.730Z,84.65
2023-03-26T19:58:59.485Z,85.67
2023-03-26T20:01:43.815Z,85.50
2023-03-26T20:04:32.570Z,85.35
2023-03-26T20:07:19.315Z,86.22
2023-03-26T20:10:06.696Z,85.31
2023-03-26T20:12:52.300Z,84.43
2023-03-26T20:15:38.320Z,85.61
2023-03-26T20:18:22.960Z,85.75
2023-03-26T20:21:12.536Z,85.19
2023-03-26T20:23:56.946Z,84.57
2023-03-26T20:26:40.993Z,84.53
2023-03-26T20:29:28.398Z,84.82
2023-03-26T20:32:20.258Z,83.99
2023-03-26T20:35:04.165Z,84.87
2023-03-26T20:37:49.330Z,84.05
2023-03-26T20:40:33.908Z,84.92
2023-03-26T20:43:19.592Z,86.26
2023-03-26T20:46:04.996Z,86.37
2023-03-26T20:48:49.535Z,85.90
2023-03-26T20:51:33.566Z,85.36
2023-03-26T20:54:19.421Z,87.23
2023-03-26T20:57:03.888Z,86.89
2023-03-26T20:59:47.843Z,87.46
2023-03-26T21:02:33.569Z,87.20
2023-03-26T21:05:24.256Z,87.22
2023-03-26T21:08:09.169Z,87.37
2023-03-26T21:10:56.206Z,86.55
2023-03-26T21:13:45.045Z,87.00
2023-03-26T21:16:29.656Z,87.50
2023-03-26T21:19:15.943Z,87.56
2023-03-26T21:22:14.435Z,87.60
2023-03-26T21:25:05.906Z,87.67
2023-03-26T21:28:01.525Z,87.85
2023-03-26T21:30:47.206Z,87.67
2023-03-26T21:33:31.206Z,86.28
2023-03-26T21:36:18.305Z,85.34
2023-03-26T21:39:03.348Z,84.78
2023-03-26T21:42:05.509Z,84.32
2023-03-26T21:44:50.478Z,84.41
2023-03-26T21:47:35.199Z,83.12
2023-03-26T21:50:21.929Z,82.87
2023-03-26T21:53:08.123Z,83.17
2023-03-26T21:56:06.325Z,85.26
2023-03-26T21:59:00.322Z,84.40
2023-03-26T22:01:52.057Z,84.19
2023-03-26T22:04:40.567Z,86.08
2023-03-26T22:07:28.637Z,87.37
2023-03-26T22:10:14.090Z,84.87
2023-03-26T22:12:58.274Z,87.22
2023-03-26T22:15:42.296Z,87.44
2023-03-26T22:18:30.045Z,87.49
2023-03-26T22:21:14.288Z,87.66
2023-03-26T22:23:58.233Z,88.10
2023-03-26T22:26:43.711Z,87.02
2023-03-26T22:29:27.598Z,87.27
2023-03-26T22:32:11.696Z,87.11
2023-03-26T22:34:55.582Z,87.12
2023-03-26T22:37:39.657Z,87.13
2023-03-26T22:40:23.803Z,87.76
2023-03-26T22:43:09.365Z,86.48
2023-03-26T22:45:54.826Z,86.73
2023-03-26T22:48:40.812Z,87.23
2023-03-26T22:51:25.085Z,86.58
2023-03-26T22:54:09.773Z,87.93
2023-03-26T22:56:55.567Z,88.77
2023-03-26T22:59:41.041Z,88.52
2023-03-26T23:02:25.042Z,87.61
2023-03-26T23:05:10.597Z,87.54
2023-03-26T23:07:54.508Z,86.99
2023-03-26T23:10:38.369Z,86.03
2023-03-26T23:13:23.382Z,86.86
2023-03-26T23:16:10.479Z,86.50
2023-03-26T23:18:54.821Z,87.09
2023-03-26T23:21:38.925Z,86.83
2023-03-26T23:24:22.872Z,86.63
2023-03-26T23:27:07.348Z,85.88
2023-03-26T23:29:51.419Z,85.20
2023-03-26T23:32:38.196Z,84.87
2023-03-26T23:35:22.310Z,84.65
2023-03-26T23:38:07.061Z,84.42
2023-03-26T23:40:57.349Z,84.12
2023-03-26T23:43:54.359Z,84.73
2023-03-26T23:46:41.782Z,84.93
2023-03-26T23:49:27.270Z,84.61
2023-03-26T23:52:11.834Z,84.68
2023-03-26T23:54:55.815Z,83.91
2023-03-26T23:57:40.779Z,83.67
